sensor_id;sensor_type;location;lat;lon;timestamp;P1;durP1;ratioP1;P2;durP2;ratioP2
14789;SDS011;7486;51.010;10.366;2022-08-19T00:01:35;24.60;;;19.67;;
14789;SDS011;7486;51.010;10.366;2022-08-19T00:04:05;25.10;;;20.35;;
14789;SDS011;7486;51.010;10.366;2022-08-19T00:06:34;25.23;;;20.58;;
14789;SDS011;7486;51.010;10.366;2022-08-19T00:09:04;24.45;;;20.27;;
14789;SDS011;7486;51.010;10.366;2022-08-19T00:11:32;24.85;;;20.33;;
14789;SDS011;7486;51.010;10.366;2022-08-19T00:13:59;23.95;;;19.23;;
14789;SDS011;7486;51.010;10.366;2022-08-19T00:16:26;21.83;;;17.75;;
14789;SDS011;7486;51.010;10.366;2022-08-19T00:18:53;23.00;;;17.77;;
14789;SDS011;7486;51.010;10.366;2022-08-19T00:21:21;22.98;;;18.05;;
14789;SDS011;7486;51.010;10.366;2022-08-19T00:23:49;20.33;;;17.95;;
14789;SDS011;7486;51.010;10.366;2022-08-19T00:26:16;20.73;;;17.70;;
14789;SDS011;7486;51.010;10.366;2022-08-19T00:28:42;22.65;;;18.23;;
14789;SDS011;7486;51.010;10.366;2022-08-19T00:31:09;24.85;;;19.63;;
14789;SDS011;7486;51.010;10.366;2022-08-19T00:33:36;22.10;;;17.80;;
14789;SDS011;7486;51.010;10.366;2022-08-19T00:36:05;22.80;;;18.52;;
14789;SDS011;7486;51.010;10.366;2022-08-19T00:38:33;23.50;;;18.33;;
14789;SDS011;7486;51.010;10.366;2022-08-19T00:41:07;20.77;;;17.25;;
14789;SDS011;7486;51.010;10.366;2022-08-19T00:43:34;23.55;;;18.65;;
14789;SDS011;7486;51.010;10.366;2022-08-19T00:46:01;21.67;;;18.70;;
14789;SDS011;7486;51.010;10.366;2022-08-19T00:48:27;21.58;;;17.75;;
14789;SDS011;7486;51.010;10.366;2022-08-19T00:50:54;20.98;;;18.27;;
14789;SDS011;7486;51.010;10.366;2022-08-19T00:53:22;22.90;;;18.60;;
14789;SDS011;7486;51.010;10.366;2022-08-19T00:55:52;22.00;;;18.27;;
14789;SDS011;7486;51.010;10.366;2022-08-19T00:58:24;21.60;;;18.17;;
14789;SDS011;7486;51.010;10.366;2022-08-19T01:00:55;24.48;;;19.15;;
14789;SDS011;7486;51.010;10.366;2022-08-19T01:03:21;23.17;;;18.85;;
14789;SDS011;7486;51.010;10.366;2022-08-19T01:05:49;20.00;;;17.50;;
14789;SDS011;7486;51.010;10.366;2022-08-19T01:08:18;21.15;;;18.50;;
14789;SDS011;7486;51.010;10.366;2022-08-19T01:10:53;21.27;;;18.08;;
14789;SDS011;7486;51.010;10.366;2022-08-19T01:13:23;19.73;;;17.63;;
14789;SDS011;7486;51.010;10.366;2022-08-19T01:16:00;22.10;;;19.23;;
14789;SDS011;7486;51.010;10.366;2022-08-19T01:18:32;24.08;;;20.35;;
14789;SDS011;7486;51.010;10.366;2022-08-19T01:21:10;21.85;;;18.35;;
14789;SDS011;7486;51.010;10.366;2022-08-19T01:23:43;19.30;;;17.13;;
14789;SDS011;7486;51.010;10.366;2022-08-19T01:26:14;21.33;;;18.63;;
14789;SDS011;7486;51.010;10.366;2022-08-19T01:28:45;20.27;;;17.40;;
14789;SDS011;7486;51.010;10.366;2022-08-19T01:31:15;20.95;;;17.60;;
14789;SDS011;7486;51.010;10.366;2022-08-19T01:33:53;22.88;;;18.77;;
14789;SDS011;7486;51.010;10.366;2022-08-19T01:36:24;21.80;;;18.17;;
14789;SDS011;7486;51.010;10.366;2022-08-19T01:38:55;21.40;;;18.20;;
14789;SDS011;7486;51.010;10.366;2022-08-19T01:41:22;20.38;;;17.33;;
14789;SDS011;7486;51.010;10.366;2022-08-19T01:43:49;20.10;;;16.20;;
14789;SDS011;7486;51.010;10.366;2022-08-19T01:46:37;18.25;;;16.17;;
14789;SDS011;7486;51.010;10.366;2022-08-19T01:49:04;18.85;;;15.70;;
14789;SDS011;7486;51.010;10.366;2022-08-19T01:51:31;18.38;;;16.13;;
14789;SDS011;7486;51.010;10.366;2022-08-19T01:54:09;18.08;;;15.18;;
14789;SDS011;7486;51.010;10.366;2022-08-19T01:56:37;17.50;;;15.25;;
14789;SDS011;7486;51.010;10.366;2022-08-19T01:59:05;16.88;;;14.57;;
14789;SDS011;7486;51.010;10.366;2022-08-19T02:01:36;16.77;;;15.05;;
14789;SDS011;7486;51.010;10.366;2022-08-19T02:04:03;16.08;;;14.48;;
14789;SDS011;7486;51.010;10.366;2022-08-19T02:06:30;18.90;;;15.35;;
14789;SDS011;7486;51.010;10.366;2022-08-19T02:08:57;16.65;;;14.85;;
14789;SDS011;7486;51.010;10.366;2022-08-19T02:11:25;17.92;;;15.18;;
14789;SDS011;7486;51.010;10.366;2022-08-19T02:13:54;16.38;;;14.68;;
14789;SDS011;7486;51.010;10.366;2022-08-19T02:16:21;17.50;;;14.57;;
14789;SDS011;7486;51.010;10.366;2022-08-19T02:18:48;17.55;;;15.55;;
14789;SDS011;7486;51.010;10.366;2022-08-19T02:21:19;16.83;;;15.15;;
14789;SDS011;7486;51.010;10.366;2022-08-19T02:23:48;16.58;;;14.30;;
14789;SDS011;7486;51.010;10.366;2022-08-19T02:26:16;16.67;;;14.80;;
14789;SDS011;7486;51.010;10.366;2022-08-19T02:28:44;15.45;;;13.90;;
14789;SDS011;7486;51.010;10.366;2022-08-19T02:31:16;15.77;;;13.88;;
14789;SDS011;7486;51.010;10.366;2022-08-19T02:33:44;16.98;;;14.73;;
14789;SDS011;7486;51.010;10.366;2022-08-19T02:36:12;16.92;;;14.90;;
14789;SDS011;7486;51.010;10.366;2022-08-19T02:38:41;15.82;;;13.73;;
14789;SDS011;7486;51.010;10.366;2022-08-19T02:41:17;16.48;;;14.77;;
14789;SDS011;7486;51.010;10.366;2022-08-19T02:43:47;15.55;;;13.85;;
14789;SDS011;7486;51.010;10.366;2022-08-19T02:46:34;14.70;;;13.20;;
14789;SDS011;7486;51.010;10.366;2022-08-19T02:49:05;17.60;;;15.15;;
14789;SDS011;7486;51.010;10.366;2022-08-19T02:51:35;16.27;;;14.57;;
14789;SDS011;7486;51.010;10.366;2022-08-19T02:54:04;16.05;;;14.40;;
14789;SDS011;7486;51.010;10.366;2022-08-19T02:56:34;19.30;;;15.45;;
14789;SDS011;7486;51.010;10.366;2022-08-19T02:59:01;19.63;;;16.42;;
14789;SDS011;7486;51.010;10.366;2022-08-19T03:01:31;18.10;;;15.63;;
14789;SDS011;7486;51.010;10.366;2022-08-19T03:03:59;17.92;;;15.70;;
14789;SDS011;7486;51.010;10.366;2022-08-19T03:06:29;20.05;;;17.15;;
14789;SDS011;7486;51.010;10.366;2022-08-19T03:08:56;17.35;;;15.50;;
14789;SDS011;7486;51.010;10.366;2022-08-19T03:11:24;18.27;;;16.33;;
14789;SDS011;7486;51.010;10.366;2022-08-19T03:13:53;17.42;;;15.60;;
14789;SDS011;7486;51.010;10.366;2022-08-19T03:16:21;18.25;;;16.15;;
14789;SDS011;7486;51.010;10.366;2022-08-19T03:18:49;18.88;;;16.58;;
14789;SDS011;7486;51.010;10.366;2022-08-19T03:21:18;18.45;;;15.95;;
14789;SDS011;7486;51.010;10.366;2022-08-19T03:23:47;18.33;;;16.33;;
14789;SDS011;7486;51.010;10.366;2022-08-19T03:26:14;20.42;;;17.00;;
14789;SDS011;7486;51.010;10.366;2022-08-19T03:28:43;18.02;;;16.13;;
14789;SDS011;7486;51.010;10.366;2022-08-19T03:31:21;19.63;;;17.38;;
14789;SDS011;7486;51.010;10.366;2022-08-19T03:34:10;21.23;;;16.30;;
14789;SDS011;7486;51.010;10.366;2022-08-19T03:36:39;23.63;;;17.92;;
14789;SDS011;7486;51.010;10.366;2022-08-19T03:39:06;21.08;;;18.77;;
14789;SDS011;7486;51.010;10.366;2022-08-19T03:41:35;19.50;;;17.10;;
14789;SDS011;7486;51.010;10.366;2022-08-19T03:44:14;20.73;;;17.92;;
14789;SDS011;7486;51.010;10.366;2022-08-19T03:46:52;22.98;;;20.60;;
14789;SDS011;7486;51.010;10.366;2022-08-19T03:49:21;25.23;;;21.98;;
14789;SDS011;7486;51.010;10.366;2022-08-19T03:51:54;20.30;;;17.88;;
14789;SDS011;7486;51.010;10.366;2022-08-19T03:54:22;22.38;;;19.58;;
14789;SDS011;7486;51.010;10.366;2022-08-19T03:56:51;21.25;;;19.00;;
14789;SDS011;7486;51.010;10.366;2022-08-19T03:59:21;22.98;;;20.60;;
14789;SDS011;7486;51.010;10.366;2022-08-19T04:01:56;22.25;;;19.80;;
14789;SDS011;7486;51.010;10.366;2022-08-19T04:04:26;22.40;;;20.10;;
14789;SDS011;7486;51.010;10.366;2022-08-19T04:06:55;21.17;;;19.02;;
14789;SDS011;7486;51.010;10.366;2022-08-19T04:09:22;21.50;;;19.33;;
14789;SDS011;7486;51.010;10.366;2022-08-19T04:11:50;22.48;;;19.75;;
14789;SDS011;7486;51.010;10.366;2022-08-19T04:14:19;20.02;;;17.92;;
14789;SDS011;7486;51.010;10.366;2022-08-19T04:17:13;21.60;;;19.30;;
14789;SDS011;7486;51.010;10.366;2022-08-19T04:19:40;19.05;;;17.15;;
14789;SDS011;7486;51.010;10.366;2022-08-19T04:22:07;19.70;;;17.75;;
14789;SDS011;7486;51.010;10.366;2022-08-19T04:24:34;18.75;;;16.95;;
14789;SDS011;7486;51.010;10.366;2022-08-19T04:27:01;19.05;;;17.05;;
14789;SDS011;7486;51.010;10.366;2022-08-19T04:29:28;18.40;;;16.38;;
14789;SDS011;7486;51.010;10.366;2022-08-19T04:31:56;19.38;;;17.42;;
14789;SDS011;7486;51.010;10.366;2022-08-19T04:34:23;20.40;;;16.30;;
14789;SDS011;7486;51.010;10.366;2022-08-19T04:36:52;18.17;;;15.25;;
14789;SDS011;7486;51.010;10.366;2022-08-19T04:39:24;16.25;;;13.63;;
14789;SDS011;7486;51.010;10.366;2022-08-19T04:41:53;15.80;;;14.18;;
14789;SDS011;7486;51.010;10.366;2022-08-19T04:44:20;16.65;;;14.93;;
14789;SDS011;7486;51.010;10.366;2022-08-19T04:46:48;16.17;;;14.48;;
14789;SDS011;7486;51.010;10.366;2022-08-19T04:49:21;14.88;;;13.43;;
14789;SDS011;7486;51.010;10.366;2022-08-19T04:51:49;15.70;;;13.43;;
14789;SDS011;7486;51.010;10.366;2022-08-19T04:54:17;13.88;;;12.48;;
14789;SDS011;7486;51.010;10.366;2022-08-19T04:57:05;13.05;;;11.15;;
14789;SDS011;7486;51.010;10.366;2022-08-19T04:59:37;13.07;;;11.70;;
14789;SDS011;7486;51.010;10.366;2022-08-19T05:02:04;11.57;;;10.38;;
14789;SDS011;7486;51.010;10.366;2022-08-19T05:04:33;10.90;;;9.82;;
14789;SDS011;7486;51.010;10.366;2022-08-19T05:07:00;10.82;;;9.75;;
14789;SDS011;7486;51.010;10.366;2022-08-19T05:09:28;10.02;;;9.02;;
14789;SDS011;7486;51.010;10.366;2022-08-19T05:12:16;12.05;;;9.48;;
14789;SDS011;7486;51.010;10.366;2022-08-19T05:14:43;10.55;;;8.27;;
14789;SDS011;7486;51.010;10.366;2022-08-19T05:17:10;9.88;;;8.05;;
14789;SDS011;7486;51.010;10.366;2022-08-19T05:19:53;8.43;;;7.45;;
14789;SDS011;7486;51.010;10.366;2022-08-19T05:22:21;7.95;;;7.13;;
14789;SDS011;7486;51.010;10.366;2022-08-19T05:24:48;7.25;;;6.53;;
14789;SDS011;7486;51.010;10.366;2022-08-19T05:27:34;7.95;;;6.78;;
14789;SDS011;7486;51.010;10.366;2022-08-19T05:30:01;7.28;;;6.40;;
14789;SDS011;7486;51.010;10.366;2022-08-19T05:32:29;6.93;;;5.65;;
14789;SDS011;7486;51.010;10.366;2022-08-19T05:34:56;7.47;;;5.28;;
14789;SDS011;7486;51.010;10.366;2022-08-19T05:37:23;5.57;;;5.03;;
14789;SDS011;7486;51.010;10.366;2022-08-19T05:39:50;7.60;;;4.80;;
14789;SDS011;7486;51.010;10.366;2022-08-19T05:42:17;5.20;;;4.68;;
14789;SDS011;7486;51.010;10.366;2022-08-19T05:44:44;5.50;;;4.43;;
14789;SDS011;7486;51.010;10.366;2022-08-19T05:47:11;6.03;;;4.22;;
14789;SDS011;7486;51.010;10.366;2022-08-19T05:49:39;5.13;;;4.20;;
14789;SDS011;7486;51.010;10.366;2022-08-19T05:52:07;4.97;;;3.90;;
14789;SDS011;7486;51.010;10.366;2022-08-19T05:54:37;4.75;;;3.83;;
14789;SDS011;7486;51.010;10.366;2022-08-19T05:57:04;4.88;;;3.97;;
14789;SDS011;7486;51.010;10.366;2022-08-19T05:59:31;4.35;;;3.65;;
14789;SDS011;7486;51.010;10.366;2022-08-19T06:01:59;4.95;;;3.80;;
14789;SDS011;7486;51.010;10.366;2022-08-19T06:04:25;4.38;;;3.70;;
14789;SDS011;7486;51.010;10.366;2022-08-19T06:06:52;4.88;;;3.83;;
14789;SDS011;7486;51.010;10.366;2022-08-19T06:09:20;4.78;;;3.45;;
14789;SDS011;7486;51.010;10.366;2022-08-19T06:11:52;4.32;;;3.80;;
14789;SDS011;7486;51.010;10.366;2022-08-19T06:14:24;4.88;;;3.63;;
14789;SDS011;7486;51.010;10.366;2022-08-19T06:16:53;5.80;;;4.20;;
14789;SDS011;7486;51.010;10.366;2022-08-19T06:19:21;5.32;;;3.78;;
14789;SDS011;7486;51.010;10.366;2022-08-19T06:21:52;4.50;;;4.00;;
14789;SDS011;7486;51.010;10.366;2022-08-19T06:24:20;3.92;;;3.63;;
14789;SDS011;7486;51.010;10.366;2022-08-19T06:26:50;5.35;;;4.07;;
14789;SDS011;7486;51.010;10.366;2022-08-19T06:29:23;6.10;;;4.35;;
14789;SDS011;7486;51.010;10.366;2022-08-19T06:31:52;4.78;;;3.90;;
14789;SDS011;7486;51.010;10.366;2022-08-19T06:34:20;4.90;;;3.75;;
14789;SDS011;7486;51.010;10.366;2022-08-19T06:36:48;4.60;;;3.70;;
14789;SDS011;7486;51.010;10.366;2022-08-19T06:39:23;4.47;;;3.60;;
14789;SDS011;7486;51.010;10.366;2022-08-19T06:41:54;5.70;;;3.50;;
14789;SDS011;7486;51.010;10.366;2022-08-19T06:44:29;7.18;;;3.80;;
14789;SDS011;7486;51.010;10.366;2022-08-19T06:46:57;4.50;;;3.05;;
14789;SDS011;7486;51.010;10.366;2022-08-19T06:49:24;3.50;;;3.20;;
14789;SDS011;7486;51.010;10.366;2022-08-19T06:51:50;4.00;;;3.45;;
14789;SDS011;7486;51.010;10.366;2022-08-19T06:54:18;5.40;;;3.50;;
14789;SDS011;7486;51.010;10.366;2022-08-19T06:56:45;4.03;;;2.95;;
14789;SDS011;7486;51.010;10.366;2022-08-19T06:59:17;3.28;;;3.05;;
14789;SDS011;7486;51.010;10.366;2022-08-19T07:01:46;3.20;;;2.90;;
14789;SDS011;7486;51.010;10.366;2022-08-19T07:04:24;3.95;;;2.63;;
14789;SDS011;7486;51.010;10.366;2022-08-19T07:06:57;3.05;;;2.65;;
14789;SDS011;7486;51.010;10.366;2022-08-19T07:09:45;4.22;;;2.70;;
14789;SDS011;7486;51.010;10.366;2022-08-19T07:12:25;2.80;;;2.45;;
14789;SDS011;7486;51.010;10.366;2022-08-19T07:14:56;4.57;;;2.70;;
14789;SDS011;7486;51.010;10.366;2022-08-19T07:17:23;3.40;;;2.50;;
14789;SDS011;7486;51.010;10.366;2022-08-19T07:19:50;2.55;;;2.30;;
14789;SDS011;7486;51.010;10.366;2022-08-19T07:22:20;2.80;;;2.40;;
14789;SDS011;7486;51.010;10.366;2022-08-19T07:24:49;3.03;;;2.22;;
14789;SDS011;7486;51.010;10.366;2022-08-19T07:27:17;3.05;;;2.00;;
14789;SDS011;7486;51.010;10.366;2022-08-19T07:29:49;2.47;;;1.80;;
14789;SDS011;7486;51.010;10.366;2022-08-19T07:32:23;2.08;;;1.80;;
14789;SDS011;7486;51.010;10.366;2022-08-19T07:34:50;1.80;;;1.70;;
14789;SDS011;7486;51.010;10.366;2022-08-19T07:37:17;3.13;;;1.92;;
14789;SDS011;7486;51.010;10.366;2022-08-19T07:39:44;1.55;;;1.45;;
14789;SDS011;7486;51.010;10.366;2022-08-19T07:42:11;2.25;;;1.80;;
14789;SDS011;7486;51.010;10.366;2022-08-19T07:44:38;1.67;;;1.58;;
14789;SDS011;7486;51.010;10.366;2022-08-19T07:47:05;1.73;;;1.50;;
14789;SDS011;7486;51.010;10.366;2022-08-19T07:49:37;2.55;;;1.63;;
14789;SDS011;7486;51.010;10.366;2022-08-19T07:52:05;1.88;;;1.70;;
14789;SDS011;7486;51.010;10.366;2022-08-19T07:54:35;2.15;;;1.73;;
14789;SDS011;7486;51.010;10.366;2022-08-19T07:57:04;3.35;;;1.50;;
14789;SDS011;7486;51.010;10.366;2022-08-19T07:59:31;1.60;;;1.50;;
14789;SDS011;7486;51.010;10.366;2022-08-19T08:01:58;1.98;;;1.77;;
14789;SDS011;7486;51.010;10.366;2022-08-19T08:04:25;2.95;;;1.90;;
14789;SDS011;7486;51.010;10.366;2022-08-19T08:06:53;2.20;;;1.83;;
14789;SDS011;7486;51.010;10.366;2022-08-19T08:09:22;1.73;;;1.63;;
14789;SDS011;7486;51.010;10.366;2022-08-19T08:12:02;1.75;;;1.50;;
14789;SDS011;7486;51.010;10.366;2022-08-19T08:14:52;1.98;;;1.60;;
14789;SDS011;7486;51.010;10.366;2022-08-19T08:17:23;1.70;;;1.60;;
14789;SDS011;7486;51.010;10.366;2022-08-19T08:20:12;2.95;;;1.88;;
14789;SDS011;7486;51.010;10.366;2022-08-19T08:22:42;1.90;;;1.80;;
14789;SDS011;7486;51.010;10.366;2022-08-19T08:25:14;2.08;;;1.88;;
14789;SDS011;7486;51.010;10.366;2022-08-19T08:27:46;2.38;;;2.17;;
14789;SDS011;7486;51.010;10.366;2022-08-19T08:30:21;2.35;;;2.05;;
14789;SDS011;7486;51.010;10.366;2022-08-19T08:32:50;2.70;;;2.20;;
14789;SDS011;7486;51.010;10.366;2022-08-19T08:35:18;3.20;;;2.20;;
14789;SDS011;7486;51.010;10.366;2022-08-19T08:37:48;2.88;;;2.30;;
14789;SDS011;7486;51.010;10.366;2022-08-19T08:48:59;2.33;;;2.13;;
14789;SDS011;7486;51.010;10.366;2022-08-19T08:51:33;2.22;;;2.00;;
14789;SDS011;7486;51.010;10.366;2022-08-19T08:54:04;3.83;;;2.67;;
14789;SDS011;7486;51.010;10.366;2022-08-19T08:56:37;2.85;;;2.00;;
14789;SDS011;7486;51.010;10.366;2022-08-19T08:59:05;2.80;;;2.13;;
14789;SDS011;7486;51.010;10.366;2022-08-19T09:01:37;2.95;;;2.30;;
14789;SDS011;7486;51.010;10.366;2022-08-19T09:04:04;2.40;;;2.20;;
14789;SDS011;7486;51.010;10.366;2022-08-19T09:06:38;2.70;;;2.03;;
14789;SDS011;7486;51.010;10.366;2022-08-19T09:09:20;6.30;;;2.10;;
14789;SDS011;7486;51.010;10.366;2022-08-19T09:17:29;3.45;;;2.40;;
14789;SDS011;7486;51.010;10.366;2022-08-19T09:20:02;2.45;;;2.05;;
14789;SDS011;7486;51.010;10.366;2022-08-19T09:22:35;3.53;;;2.33;;
14789;SDS011;7486;51.010;10.366;2022-08-19T09:25:06;4.07;;;2.13;;
14789;SDS011;7486;51.010;10.366;2022-08-19T09:27:35;2.55;;;2.10;;
14789;SDS011;7486;51.010;10.366;2022-08-19T09:30:12;5.07;;;2.20;;
14789;SDS011;7486;51.010;10.366;2022-08-19T09:32:48;2.45;;;2.13;;
14789;SDS011;7486;51.010;10.366;2022-08-19T09:35:19;2.35;;;2.15;;
14789;SDS011;7486;51.010;10.366;2022-08-19T09:37:50;3.00;;;2.40;;
14789;SDS011;7486;51.010;10.366;2022-08-19T09:40:23;3.13;;;2.30;;
14789;SDS011;7486;51.010;10.366;2022-08-19T09:42:50;2.97;;;2.10;;
14789;SDS011;7486;51.010;10.366;2022-08-19T09:45:18;2.63;;;1.88;;
14789;SDS011;7486;51.010;10.366;2022-08-19T09:47:47;2.63;;;1.88;;
14789;SDS011;7486;51.010;10.366;2022-08-19T09:50:14;2.33;;;2.13;;
14789;SDS011;7486;51.010;10.366;2022-08-19T09:52:42;2.65;;;2.13;;
14789;SDS011;7486;51.010;10.366;2022-08-19T09:55:23;2.70;;;2.20;;
14789;SDS011;7486;51.010;10.366;2022-08-19T09:58:01;3.95;;;1.88;;
14789;SDS011;7486;51.010;10.366;2022-08-19T10:00:28;1.88;;;1.77;;
14789;SDS011;7486;51.010;10.366;2022-08-19T10:02:55;3.45;;;2.00;;
14789;SDS011;7486;51.010;10.366;2022-08-19T10:05:22;2.95;;;1.90;;
14789;SDS011;7486;51.010;10.366;2022-08-19T10:07:52;2.33;;;1.80;;
14789;SDS011;7486;51.010;10.366;2022-08-19T10:10:22;2.72;;;2.20;;
14789;SDS011;7486;51.010;10.366;2022-08-19T10:12:49;3.58;;;2.20;;
14789;SDS011;7486;51.010;10.366;2022-08-19T10:15:16;2.00;;;1.80;;
14789;SDS011;7486;51.010;10.366;2022-08-19T10:17:54;2.80;;;1.80;;
14789;SDS011;7486;51.010;10.366;2022-08-19T10:20:21;2.17;;;1.90;;
14789;SDS011;7486;51.010;10.366;2022-08-19T10:22:48;2.00;;;1.80;;
14789;SDS011;7486;51.010;10.366;2022-08-19T10:25:18;2.70;;;1.80;;
14789;SDS011;7486;51.010;10.366;2022-08-19T10:27:45;1.98;;;1.80;;
14789;SDS011;7486;51.010;10.366;2022-08-19T10:30:16;2.45;;;2.00;;
14789;SDS011;7486;51.010;10.366;2022-08-19T10:32:45;2.03;;;1.80;;
14789;SDS011;7486;51.010;10.366;2022-08-19T10:35:13;2.63;;;1.80;;
14789;SDS011;7486;51.010;10.366;2022-08-19T10:37:47;2.03;;;1.83;;
14789;SDS011;7486;51.010;10.366;2022-08-19T10:40:23;2.28;;;1.80;;
14789;SDS011;7486;51.010;10.366;2022-08-19T10:42:50;1.70;;;1.60;;
14789;SDS011;7486;51.010;10.366;2022-08-19T10:45:16;2.70;;;1.70;;
14789;SDS011;7486;51.010;10.366;2022-08-19T10:47:43;2.05;;;1.65;;
14789;SDS011;7486;51.010;10.366;2022-08-19T10:50:10;2.17;;;1.80;;
14789;SDS011;7486;51.010;10.366;2022-08-19T10:52:38;3.35;;;2.10;;
14789;SDS011;7486;51.010;10.366;2022-08-19T10:55:20;2.60;;;1.70;;
14789;SDS011;7486;51.010;10.366;2022-08-19T10:57:51;1.80;;;1.70;;
14789;SDS011;7486;51.010;10.366;2022-08-19T11:00:28;3.25;;;1.88;;
14789;SDS011;7486;51.010;10.366;2022-08-19T11:02:54;3.05;;;2.10;;
14789;SDS011;7486;51.010;10.366;2022-08-19T11:05:21;3.67;;;1.88;;
14789;SDS011;7486;51.010;10.366;2022-08-19T11:07:49;2.67;;;1.85;;
14789;SDS011;7486;51.010;10.366;2022-08-19T11:10:16;2.53;;;2.08;;
14789;SDS011;7486;51.010;10.366;2022-08-19T11:12:47;1.90;;;1.80;;
14789;SDS011;7486;51.010;10.366;2022-08-19T11:15:14;2.17;;;1.98;;
14789;SDS011;7486;51.010;10.366;2022-08-19T11:17:41;3.00;;;2.20;;
14789;SDS011;7486;51.010;10.366;2022-08-19T11:20:08;1.98;;;1.80;;
14789;SDS011;7486;51.010;10.366;2022-08-19T11:22:36;2.03;;;1.60;;
14789;SDS011;7486;51.010;10.366;2022-08-19T11:25:07;2.58;;;2.00;;
14789;SDS011;7486;51.010;10.366;2022-08-19T11:27:41;4.35;;;2.03;;
14789;SDS011;7486;51.010;10.366;2022-08-19T11:30:09;2.13;;;1.92;;
14789;SDS011;7486;51.010;10.366;2022-08-19T11:32:39;2.72;;;1.90;;
14789;SDS011;7486;51.010;10.366;2022-08-19T11:35:12;2.17;;;2.03;;
14789;SDS011;7486;51.010;10.366;2022-08-19T11:37:39;2.28;;;1.70;;
14789;SDS011;7486;51.010;10.366;2022-08-19T11:40:06;2.63;;;2.17;;
14789;SDS011;7486;51.010;10.366;2022-08-19T11:42:33;2.20;;;2.00;;
14789;SDS011;7486;51.010;10.366;2022-08-19T11:45:00;3.63;;;1.80;;
14789;SDS011;7486;51.010;10.366;2022-08-19T11:47:26;2.17;;;1.77;;
14789;SDS011;7486;51.010;10.366;2022-08-19T11:49:53;4.05;;;1.70;;
14789;SDS011;7486;51.010;10.366;2022-08-19T11:52:20;2.05;;;1.83;;
14789;SDS011;7486;51.010;10.366;2022-08-19T11:54:46;3.15;;;1.92;;
14789;SDS011;7486;51.010;10.366;2022-08-19T11:57:13;3.72;;;2.25;;
14789;SDS011;7486;51.010;10.366;2022-08-19T11:59:40;1.77;;;1.67;;
14789;SDS011;7486;51.010;10.366;2022-08-19T12:02:07;2.35;;;1.95;;
14789;SDS011;7486;51.010;10.366;2022-08-19T12:04:34;3.85;;;2.15;;
14789;SDS011;7486;51.010;10.366;2022-08-19T12:07:00;1.80;;;1.70;;
14789;SDS011;7486;51.010;10.366;2022-08-19T12:09:27;4.15;;;1.80;;
14789;SDS011;7486;51.010;10.366;2022-08-19T12:11:56;2.00;;;1.80;;
14789;SDS011;7486;51.010;10.366;2022-08-19T12:14:23;2.75;;;1.80;;
14789;SDS011;7486;51.010;10.366;2022-08-19T12:16:49;2.10;;;1.75;;
14789;SDS011;7486;51.010;10.366;2022-08-19T12:19:18;3.10;;;2.08;;
14789;SDS011;7486;51.010;10.366;2022-08-19T12:21:48;3.38;;;2.00;;
14789;SDS011;7486;51.010;10.366;2022-08-19T12:24:15;2.30;;;2.10;;
14789;SDS011;7486;51.010;10.366;2022-08-19T12:26:42;2.33;;;1.90;;
14789;SDS011;7486;51.010;10.366;2022-08-19T12:29:19;2.13;;;1.80;;
14789;SDS011;7486;51.010;10.366;2022-08-19T12:31:49;3.42;;;1.90;;
14789;SDS011;7486;51.010;10.366;2022-08-19T12:34:16;1.80;;;1.70;;
14789;SDS011;7486;51.010;10.366;2022-08-19T12:36:42;2.10;;;1.90;;
14789;SDS011;7486;51.010;10.366;2022-08-19T12:39:09;2.40;;;1.90;;
14789;SDS011;7486;51.010;10.366;2022-08-19T12:41:38;1.95;;;1.70;;
14789;SDS011;7486;51.010;10.366;2022-08-19T12:44:19;2.03;;;1.50;;
14789;SDS011;7486;51.010;10.366;2022-08-19T12:46:54;1.77;;;1.60;;
14789;SDS011;7486;51.010;10.366;2022-08-19T12:49:21;1.50;;;1.40;;
14789;SDS011;7486;51.010;10.366;2022-08-19T12:52:08;2.95;;;1.63;;
14789;SDS011;7486;51.010;10.366;2022-08-19T12:54:35;2.53;;;1.67;;
14789;SDS011;7486;51.010;10.366;2022-08-19T12:57:07;3.25;;;1.70;;
14789;SDS011;7486;51.010;10.366;2022-08-19T12:59:35;2.33;;;1.45;;
14789;SDS011;7486;51.010;10.366;2022-08-19T13:02:02;1.60;;;1.50;;
14789;SDS011;7486;51.010;10.366;2022-08-19T13:04:30;1.70;;;1.60;;
14789;SDS011;7486;51.010;10.366;2022-08-19T13:06:58;1.65;;;1.50;;
14789;SDS011;7486;51.010;10.366;2022-08-19T13:09:24;1.42;;;1.33;;
14789;SDS011;7486;51.010;10.366;2022-08-19T13:11:51;1.75;;;1.60;;
14789;SDS011;7486;51.010;10.366;2022-08-19T13:14:18;2.20;;;1.67;;
14789;SDS011;7486;51.010;10.366;2022-08-19T13:16:44;1.45;;;1.35;;
14789;SDS011;7486;51.010;10.366;2022-08-19T13:19:11;2.25;;;1.42;;
14789;SDS011;7486;51.010;10.366;2022-08-19T13:21:38;1.85;;;1.25;;
14789;SDS011;7486;51.010;10.366;2022-08-19T13:24:08;2.22;;;1.50;;
14789;SDS011;7486;51.010;10.366;2022-08-19T13:26:34;2.13;;;1.48;;
14789;SDS011;7486;51.010;10.366;2022-08-19T13:29:01;2.38;;;1.45;;
14789;SDS011;7486;51.010;10.366;2022-08-19T13:31:29;1.58;;;1.40;;
14789;SDS011;7486;51.010;10.366;2022-08-19T13:33:57;1.63;;;1.27;;
14789;SDS011;7486;51.010;10.366;2022-08-19T13:36:23;1.55;;;1.40;;
14789;SDS011;7486;51.010;10.366;2022-08-19T13:38:50;1.67;;;1.52;;
14789;SDS011;7486;51.010;10.366;2022-08-19T13:41:17;1.60;;;1.50;;
14789;SDS011;7486;51.010;10.366;2022-08-19T13:43:43;1.40;;;1.30;;
14789;SDS011;7486;51.010;10.366;2022-08-19T13:46:11;3.00;;;1.60;;
14789;SDS011;7486;51.010;10.366;2022-08-19T13:48:38;1.50;;;1.40;;
14789;SDS011;7486;51.010;10.366;2022-08-19T13:51:05;1.90;;;1.40;;
14789;SDS011;7486;51.010;10.366;2022-08-19T13:53:31;1.92;;;1.40;;
14789;SDS011;7486;51.010;10.366;2022-08-19T13:55:58;1.38;;;1.20;;
14789;SDS011;7486;51.010;10.366;2022-08-19T13:58:25;1.77;;;1.50;;
14789;SDS011;7486;51.010;10.366;2022-08-19T14:00:51;1.42;;;1.30;;
14789;SDS011;7486;51.010;10.366;2022-08-19T14:03:18;1.80;;;1.33;;
14789;SDS011;7486;51.010;10.366;2022-08-19T14:05:45;1.73;;;1.20;;
14789;SDS011;7486;51.010;10.366;2022-08-19T14:08:12;1.95;;;1.30;;
14789;SDS011;7486;51.010;10.366;2022-08-19T14:10:38;1.08;;;1.08;;
14789;SDS011;7486;51.010;10.366;2022-08-19T14:13:05;3.78;;;1.30;;
14789;SDS011;7486;51.010;10.366;2022-08-19T14:15:32;1.70;;;1.33;;
14789;SDS011;7486;51.010;10.366;2022-08-19T14:17:58;1.35;;;1.25;;
14789;SDS011;7486;51.010;10.366;2022-08-19T14:20:25;1.10;;;1.10;;
14789;SDS011;7486;51.010;10.366;2022-08-19T14:22:53;1.30;;;1.20;;
14789;SDS011;7486;51.010;10.366;2022-08-19T14:25:24;2.22;;;1.20;;
14789;SDS011;7486;51.010;10.366;2022-08-19T14:27:52;1.17;;;1.08;;
14789;SDS011;7486;51.010;10.366;2022-08-19T14:30:24;1.05;;;1.05;;
14789;SDS011;7486;51.010;10.366;2022-08-19T14:32:57;1.20;;;1.05;;
14789;SDS011;7486;51.010;10.366;2022-08-19T14:35:25;1.30;;;1.10;;
14789;SDS011;7486;51.010;10.366;2022-08-19T14:37:54;1.40;;;1.30;;
14789;SDS011;7486;51.010;10.366;2022-08-19T14:40:22;1.30;;;1.20;;
14789;SDS011;7486;51.010;10.366;2022-08-19T14:42:54;1.80;;;1.20;;
14789;SDS011;7486;51.010;10.366;2022-08-19T14:45:27;1.60;;;1.15;;
14789;SDS011;7486;51.010;10.366;2022-08-19T14:47:54;1.30;;;1.20;;
14789;SDS011;7486;51.010;10.366;2022-08-19T14:50:21;1.30;;;1.20;;
14789;SDS011;7486;51.010;10.366;2022-08-19T14:52:48;1.67;;;1.23;;
14789;SDS011;7486;51.010;10.366;2022-08-19T14:55:16;1.40;;;1.30;;
14789;SDS011;7486;51.010;10.366;2022-08-19T14:57:44;1.30;;;1.20;;
14789;SDS011;7486;51.010;10.366;2022-08-19T15:00:11;1.60;;;1.50;;
14789;SDS011;7486;51.010;10.366;2022-08-19T15:02:39;2.38;;;1.23;;
14789;SDS011;7486;51.010;10.366;2022-08-19T15:05:06;1.58;;;1.30;;
14789;SDS011;7486;51.010;10.366;2022-08-19T15:07:33;1.33;;;1.23;;